Sumner, Illinois
Current Conditions -  °F | °C
As of 4:35 AM on Thursday 27 Nov 2014 (Local Time) from KAJG Reporting Station
Overcast Overcast  
Wind Chill: 24°   Ceiling: 1900
Heat Index: 32°   Visibility: 10mi
Dew Point: 28°   Wind: 10mph
Humidity: 87%   Direction: 320°NW
Pressure: 30.28"   Gusts: NA
Location:  38.72°N, 87.86°W
Report Text: KAJG 271035Z AUTO 32009KT 10SM SCT011 OVC019 00/M02 A3028 RMK AO2
Loading
Personal Weather Stations






























Interactive Weather Map New forecast layout! Learn more

10-Day Weather Forecast

Advertisements
Track Severe Weather on mobile